sensor_id;sensor_type;location;lat;lon;timestamp;P1;durP1;ratioP1;P2;durP2;ratioP2
52942;SDS011;38809;53.300;6.614;2023-08-17T00:01:39;4.20;;;1.75;;
52942;SDS011;38809;53.300;6.614;2023-08-17T00:04:05;2.88;;;1.60;;
52942;SDS011;38809;53.300;6.614;2023-08-17T00:06:31;4.07;;;1.95;;
52942;SDS011;38809;53.300;6.614;2023-08-17T00:08:56;4.43;;;2.20;;
52942;SDS011;38809;53.300;6.614;2023-08-17T00:11:22;6.00;;;2.30;;
52942;SDS011;38809;53.300;6.614;2023-08-17T00:13:48;2.83;;;1.42;;
52942;SDS011;38809;53.300;6.614;2023-08-17T00:16:14;3.75;;;1.70;;
52942;SDS011;38809;53.300;6.614;2023-08-17T00:18:40;3.03;;;1.60;;
52942;SDS011;38809;53.300;6.614;2023-08-17T00:21:05;4.57;;;1.60;;
52942;SDS011;38809;53.300;6.614;2023-08-17T00:23:31;4.90;;;1.85;;
52942;SDS011;38809;53.300;6.614;2023-08-17T00:25:57;2.90;;;1.58;;
52942;SDS011;38809;53.300;6.614;2023-08-17T00:28:22;2.25;;;1.60;;
52942;SDS011;38809;53.300;6.614;2023-08-17T00:30:48;3.25;;;1.75;;
52942;SDS011;38809;53.300;6.614;2023-08-17T00:33:14;3.00;;;1.90;;
52942;SDS011;38809;53.300;6.614;2023-08-17T00:35:39;3.25;;;1.63;;
52942;SDS011;38809;53.300;6.614;2023-08-17T00:38:05;5.25;;;2.38;;
52942;SDS011;38809;53.300;6.614;2023-08-17T00:40:31;5.07;;;1.90;;
52942;SDS011;38809;53.300;6.614;2023-08-17T00:42:56;3.70;;;1.90;;
52942;SDS011;38809;53.300;6.614;2023-08-17T00:45:22;5.15;;;1.70;;
52942;SDS011;38809;53.300;6.614;2023-08-17T00:47:49;3.85;;;1.77;;
52942;SDS011;38809;53.300;6.614;2023-08-17T00:50:15;4.57;;;1.85;;
52942;SDS011;38809;53.300;6.614;2023-08-17T00:55:07;3.13;;;1.90;;
52942;SDS011;38809;53.300;6.614;2023-08-17T00:57:34;4.55;;;2.03;;
52942;SDS011;38809;53.300;6.614;2023-08-17T01:00:01;3.17;;;1.88;;
52942;SDS011;38809;53.300;6.614;2023-08-17T01:02:27;3.72;;;1.80;;
52942;SDS011;38809;53.300;6.614;2023-08-17T01:07:19;3.47;;;1.58;;
52942;SDS011;38809;53.300;6.614;2023-08-17T01:09:46;3.22;;;1.92;;
52942;SDS011;38809;53.300;6.614;2023-08-17T01:15:16;3.92;;;1.92;;
52942;SDS011;38809;53.300;6.614;2023-08-17T01:20:47;2.72;;;1.50;;
52942;SDS011;38809;53.300;6.614;2023-08-17T01:23:14;3.80;;;1.55;;
52942;SDS011;38809;53.300;6.614;2023-08-17T01:25:40;3.28;;;1.60;;
52942;SDS011;38809;53.300;6.614;2023-08-17T01:28:05;2.53;;;1.42;;
52942;SDS011;38809;53.300;6.614;2023-08-17T01:33:20;4.60;;;1.92;;
52942;SDS011;38809;53.300;6.614;2023-08-17T01:36:06;3.33;;;1.60;;
52942;SDS011;38809;53.300;6.614;2023-08-17T01:38:43;3.58;;;1.73;;
52942;SDS011;38809;53.300;6.614;2023-08-17T01:41:10;3.72;;;1.80;;
52942;SDS011;38809;53.300;6.614;2023-08-17T01:43:39;3.67;;;2.30;;
52942;SDS011;38809;53.300;6.614;2023-08-17T01:46:07;3.00;;;1.95;;
52942;SDS011;38809;53.300;6.614;2023-08-17T01:48:33;3.33;;;1.95;;
52942;SDS011;38809;53.300;6.614;2023-08-17T01:50:59;3.08;;;1.95;;
52942;SDS011;38809;53.300;6.614;2023-08-17T01:53:24;3.67;;;2.10;;
52942;SDS011;38809;53.300;6.614;2023-08-17T01:55:50;2.22;;;1.67;;
52942;SDS011;38809;53.300;6.614;2023-08-17T01:58:16;3.13;;;1.95;;
52942;SDS011;38809;53.300;6.614;2023-08-17T02:00:41;3.17;;;2.10;;
52942;SDS011;38809;53.300;6.614;2023-08-17T02:03:07;3.05;;;2.17;;
52942;SDS011;38809;53.300;6.614;2023-08-17T02:05:33;4.20;;;2.08;;
52942;SDS011;38809;53.300;6.614;2023-08-17T02:07:58;7.25;;;2.00;;
52942;SDS011;38809;53.300;6.614;2023-08-17T02:10:24;5.07;;;2.30;;
52942;SDS011;38809;53.300;6.614;2023-08-17T02:12:50;3.65;;;1.75;;
52942;SDS011;38809;53.300;6.614;2023-08-17T02:15:16;2.90;;;1.75;;
52942;SDS011;38809;53.300;6.614;2023-08-17T02:17:41;3.75;;;1.90;;
52942;SDS011;38809;53.300;6.614;2023-08-17T02:20:07;4.55;;;1.70;;
52942;SDS011;38809;53.300;6.614;2023-08-17T02:22:34;2.85;;;1.70;;
52942;SDS011;38809;53.300;6.614;2023-08-17T02:24:59;2.63;;;1.67;;
52942;SDS011;38809;53.300;6.614;2023-08-17T02:27:25;4.97;;;1.83;;
52942;SDS011;38809;53.300;6.614;2023-08-17T02:29:51;2.70;;;1.70;;
52942;SDS011;38809;53.300;6.614;2023-08-17T02:32:17;4.05;;;2.13;;
52942;SDS011;38809;53.300;6.614;2023-08-17T02:34:43;2.83;;;1.70;;
52942;SDS011;38809;53.300;6.614;2023-08-17T02:37:08;3.72;;;1.60;;
52942;SDS011;38809;53.300;6.614;2023-08-17T02:39:34;2.25;;;1.70;;
52942;SDS011;38809;53.300;6.614;2023-08-17T02:42:00;4.78;;;2.03;;
52942;SDS011;38809;53.300;6.614;2023-08-17T02:44:25;3.35;;;1.70;;
52942;SDS011;38809;53.300;6.614;2023-08-17T02:46:53;3.85;;;1.55;;
52942;SDS011;38809;53.300;6.614;2023-08-17T02:49:19;3.05;;;1.58;;
52942;SDS011;38809;53.300;6.614;2023-08-17T02:51:45;3.17;;;1.58;;
52942;SDS011;38809;53.300;6.614;2023-08-17T02:54:11;2.58;;;1.67;;
52942;SDS011;38809;53.300;6.614;2023-08-17T02:56:36;3.83;;;1.73;;
52942;SDS011;38809;53.300;6.614;2023-08-17T02:59:02;3.63;;;1.60;;
52942;SDS011;38809;53.300;6.614;2023-08-17T03:01:28;2.83;;;1.60;;
52942;SDS011;38809;53.300;6.614;2023-08-17T03:03:55;4.55;;;1.90;;
52942;SDS011;38809;53.300;6.614;2023-08-17T03:06:20;4.00;;;1.60;;
52942;SDS011;38809;53.300;6.614;2023-08-17T03:08:46;3.80;;;1.90;;
52942;SDS011;38809;53.300;6.614;2023-08-17T03:11:12;3.55;;;1.73;;
52942;SDS011;38809;53.300;6.614;2023-08-17T03:13:37;3.60;;;1.80;;
52942;SDS011;38809;53.300;6.614;2023-08-17T03:16:03;3.85;;;1.55;;
52942;SDS011;38809;53.300;6.614;2023-08-17T03:18:29;3.65;;;1.60;;
52942;SDS011;38809;53.300;6.614;2023-08-17T03:20:55;10.95;;;1.95;;
52942;SDS011;38809;53.300;6.614;2023-08-17T03:23:20;3.80;;;1.77;;
52942;SDS011;38809;53.300;6.614;2023-08-17T03:25:50;2.47;;;1.50;;
52942;SDS011;38809;53.300;6.614;2023-08-17T03:28:17;3.65;;;1.50;;
52942;SDS011;38809;53.300;6.614;2023-08-17T03:30:42;2.30;;;1.42;;
52942;SDS011;38809;53.300;6.614;2023-08-17T03:33:08;2.88;;;1.40;;
52942;SDS011;38809;53.300;6.614;2023-08-17T03:35:34;2.95;;;1.25;;
52942;SDS011;38809;53.300;6.614;2023-08-17T03:38:00;3.10;;;1.27;;
52942;SDS011;38809;53.300;6.614;2023-08-17T03:40:25;3.78;;;1.42;;
52942;SDS011;38809;53.300;6.614;2023-08-17T03:42:51;2.88;;;1.50;;
52942;SDS011;38809;53.300;6.614;2023-08-17T03:45:17;6.85;;;1.80;;
52942;SDS011;38809;53.300;6.614;2023-08-17T03:47:43;2.92;;;1.50;;
52942;SDS011;38809;53.300;6.614;2023-08-17T03:50:09;5.68;;;1.42;;
52942;SDS011;38809;53.300;6.614;2023-08-17T03:52:35;2.28;;;1.23;;
52942;SDS011;38809;53.300;6.614;2023-08-17T03:55:01;4.78;;;1.52;;
52942;SDS011;38809;53.300;6.614;2023-08-17T03:57:27;2.88;;;1.48;;
52942;SDS011;38809;53.300;6.614;2023-08-17T03:59:52;3.58;;;1.70;;
52942;SDS011;38809;53.300;6.614;2023-08-17T04:02:18;3.15;;;1.63;;
52942;SDS011;38809;53.300;6.614;2023-08-17T04:04:44;4.22;;;1.45;;
52942;SDS011;38809;53.300;6.614;2023-08-17T04:07:10;3.25;;;1.58;;
52942;SDS011;38809;53.300;6.614;2023-08-17T04:09:36;3.85;;;1.80;;
52942;SDS011;38809;53.300;6.614;2023-08-17T04:12:01;3.00;;;1.40;;
52942;SDS011;38809;53.300;6.614;2023-08-17T04:14:29;4.35;;;1.58;;
52942;SDS011;38809;53.300;6.614;2023-08-17T04:16:55;3.42;;;1.50;;
52942;SDS011;38809;53.300;6.614;2023-08-17T04:19:23;3.30;;;1.38;;
52942;SDS011;38809;53.300;6.614;2023-08-17T04:21:48;3.75;;;1.38;;
52942;SDS011;38809;53.300;6.614;2023-08-17T04:24:14;3.65;;;1.23;;
52942;SDS011;38809;53.300;6.614;2023-08-17T04:26:40;2.45;;;1.20;;
52942;SDS011;38809;53.300;6.614;2023-08-17T04:29:05;3.28;;;1.13;;
52942;SDS011;38809;53.300;6.614;2023-08-17T04:31:31;2.75;;;1.45;;
52942;SDS011;38809;53.300;6.614;2023-08-17T04:33:57;2.28;;;1.10;;
52942;SDS011;38809;53.300;6.614;2023-08-17T04:36:22;2.35;;;1.20;;
52942;SDS011;38809;53.300;6.614;2023-08-17T04:38:48;3.72;;;1.30;;
52942;SDS011;38809;53.300;6.614;2023-08-17T04:41:14;3.05;;;1.13;;
52942;SDS011;38809;53.300;6.614;2023-08-17T04:43:39;3.53;;;1.10;;
52942;SDS011;38809;53.300;6.614;2023-08-17T04:46:05;2.17;;;0.98;;
52942;SDS011;38809;53.300;6.614;2023-08-17T04:48:31;3.33;;;1.30;;
52942;SDS011;38809;53.300;6.614;2023-08-17T04:50:57;2.20;;;1.20;;
52942;SDS011;38809;53.300;6.614;2023-08-17T04:53:22;1.67;;;1.00;;
52942;SDS011;38809;53.300;6.614;2023-08-17T04:55:48;3.63;;;1.30;;
52942;SDS011;38809;53.300;6.614;2023-08-17T04:58:14;2.88;;;1.10;;
52942;SDS011;38809;53.300;6.614;2023-08-17T05:00:39;3.75;;;1.10;;
52942;SDS011;38809;53.300;6.614;2023-08-17T05:03:05;2.92;;;1.30;;
52942;SDS011;38809;53.300;6.614;2023-08-17T05:05:31;2.55;;;1.38;;
52942;SDS011;38809;53.300;6.614;2023-08-17T05:07:56;4.20;;;1.27;;
52942;SDS011;38809;53.300;6.614;2023-08-17T05:10:22;2.95;;;1.50;;
52942;SDS011;38809;53.300;6.614;2023-08-17T05:12:48;2.53;;;1.25;;
52942;SDS011;38809;53.300;6.614;2023-08-17T05:15:13;2.58;;;1.20;;
52942;SDS011;38809;53.300;6.614;2023-08-17T05:17:39;3.88;;;1.58;;
52942;SDS011;38809;53.300;6.614;2023-08-17T05:20:05;2.63;;;1.17;;
52942;SDS011;38809;53.300;6.614;2023-08-17T05:22:33;4.43;;;1.58;;
52942;SDS011;38809;53.300;6.614;2023-08-17T05:24:59;2.42;;;1.05;;
52942;SDS011;38809;53.300;6.614;2023-08-17T05:27:24;3.28;;;1.10;;
52942;SDS011;38809;53.300;6.614;2023-08-17T05:29:50;2.47;;;1.27;;
52942;SDS011;38809;53.300;6.614;2023-08-17T05:32:16;3.65;;;1.50;;
52942;SDS011;38809;53.300;6.614;2023-08-17T05:34:41;2.80;;;1.25;;
52942;SDS011;38809;53.300;6.614;2023-08-17T05:37:07;2.45;;;1.20;;
52942;SDS011;38809;53.300;6.614;2023-08-17T05:39:33;3.90;;;1.73;;
52942;SDS011;38809;53.300;6.614;2023-08-17T05:41:58;3.40;;;1.23;;
52942;SDS011;38809;53.300;6.614;2023-08-17T05:44:24;4.38;;;1.40;;
52942;SDS011;38809;53.300;6.614;2023-08-17T05:46:50;3.17;;;1.20;;
52942;SDS011;38809;53.300;6.614;2023-08-17T05:49:15;2.65;;;1.23;;
52942;SDS011;38809;53.300;6.614;2023-08-17T05:51:41;2.45;;;1.33;;
52942;SDS011;38809;53.300;6.614;2023-08-17T05:54:07;3.28;;;1.50;;
52942;SDS011;38809;53.300;6.614;2023-08-17T05:56:33;2.72;;;1.20;;
52942;SDS011;38809;53.300;6.614;2023-08-17T05:58:58;3.55;;;1.48;;
52942;SDS011;38809;53.300;6.614;2023-08-17T06:01:24;6.05;;;1.35;;
52942;SDS011;38809;53.300;6.614;2023-08-17T06:06:16;2.72;;;1.38;;
52942;SDS011;38809;53.300;6.614;2023-08-17T06:08:42;2.47;;;1.23;;
52942;SDS011;38809;53.300;6.614;2023-08-17T06:11:07;4.65;;;2.38;;
52942;SDS011;38809;53.300;6.614;2023-08-17T06:13:33;4.45;;;1.83;;
52942;SDS011;38809;53.300;6.614;2023-08-17T06:16:00;2.88;;;1.40;;
52942;SDS011;38809;53.300;6.614;2023-08-17T06:18:26;3.58;;;1.63;;
52942;SDS011;38809;53.300;6.614;2023-08-17T06:20:52;2.67;;;1.45;;
52942;SDS011;38809;53.300;6.614;2023-08-17T06:23:19;2.65;;;1.40;;
52942;SDS011;38809;53.300;6.614;2023-08-17T06:25:45;2.78;;;1.13;;
52942;SDS011;38809;53.300;6.614;2023-08-17T06:28:11;3.30;;;1.30;;
52942;SDS011;38809;53.300;6.614;2023-08-17T06:30:36;2.25;;;1.25;;
52942;SDS011;38809;53.300;6.614;2023-08-17T06:33:02;2.80;;;1.48;;
52942;SDS011;38809;53.300;6.614;2023-08-17T06:35:30;2.40;;;1.13;;
52942;SDS011;38809;53.300;6.614;2023-08-17T06:37:55;5.38;;;1.25;;
52942;SDS011;38809;53.300;6.614;2023-08-17T06:40:23;4.00;;;1.20;;
52942;SDS011;38809;53.300;6.614;2023-08-17T06:42:49;2.53;;;1.15;;
52942;SDS011;38809;53.300;6.614;2023-08-17T06:45:15;2.03;;;0.82;;
52942;SDS011;38809;53.300;6.614;2023-08-17T06:47:44;3.40;;;1.48;;
52942;SDS011;38809;53.300;6.614;2023-08-17T06:50:10;2.92;;;1.00;;
52942;SDS011;38809;53.300;6.614;2023-08-17T06:52:36;4.32;;;1.50;;
52942;SDS011;38809;53.300;6.614;2023-08-17T06:55:02;3.30;;;1.25;;
52942;SDS011;38809;53.300;6.614;2023-08-17T06:57:28;2.15;;;0.80;;
52942;SDS011;38809;53.300;6.614;2023-08-17T06:59:54;2.95;;;1.20;;
52942;SDS011;38809;53.300;6.614;2023-08-17T07:02:20;2.50;;;1.30;;
52942;SDS011;38809;53.300;6.614;2023-08-17T07:04:45;2.05;;;0.95;;
52942;SDS011;38809;53.300;6.614;2023-08-17T07:09:39;4.90;;;1.00;;
52942;SDS011;38809;53.300;6.614;2023-08-17T07:12:05;2.88;;;0.95;;
52942;SDS011;38809;53.300;6.614;2023-08-17T07:14:31;2.63;;;0.93;;
52942;SDS011;38809;53.300;6.614;2023-08-17T07:16:58;3.83;;;0.85;;
52942;SDS011;38809;53.300;6.614;2023-08-17T07:19:24;2.55;;;1.20;;
52942;SDS011;38809;53.300;6.614;2023-08-17T07:21:50;5.40;;;1.00;;
52942;SDS011;38809;53.300;6.614;2023-08-17T07:24:16;3.20;;;1.02;;
52942;SDS011;38809;53.300;6.614;2023-08-17T07:26:42;6.28;;;1.30;;
52942;SDS011;38809;53.300;6.614;2023-08-17T07:29:08;2.45;;;1.13;;
52942;SDS011;38809;53.300;6.614;2023-08-17T07:31:34;2.25;;;0.90;;
52942;SDS011;38809;53.300;6.614;2023-08-17T07:34:02;2.72;;;0.90;;
52942;SDS011;38809;53.300;6.614;2023-08-17T07:36:29;4.40;;;1.40;;
52942;SDS011;38809;53.300;6.614;2023-08-17T07:38:55;3.53;;;1.20;;
52942;SDS011;38809;53.300;6.614;2023-08-17T07:41:21;2.45;;;0.90;;
52942;SDS011;38809;53.300;6.614;2023-08-17T07:43:47;2.30;;;0.90;;
52942;SDS011;38809;53.300;6.614;2023-08-17T07:46:12;3.05;;;1.65;;
52942;SDS011;38809;53.300;6.614;2023-08-17T07:48:38;3.28;;;1.15;;
52942;SDS011;38809;53.300;6.614;2023-08-17T07:51:04;3.03;;;1.10;;
52942;SDS011;38809;53.300;6.614;2023-08-17T07:53:29;4.32;;;1.15;;
52942;SDS011;38809;53.300;6.614;2023-08-17T07:55:55;2.50;;;0.98;;
52942;SDS011;38809;53.300;6.614;2023-08-17T07:58:21;3.53;;;0.90;;
52942;SDS011;38809;53.300;6.614;2023-08-17T08:00:46;3.42;;;1.00;;
52942;SDS011;38809;53.300;6.614;2023-08-17T08:03:12;2.88;;;1.10;;
52942;SDS011;38809;53.300;6.614;2023-08-17T08:05:39;2.08;;;0.85;;
52942;SDS011;38809;53.300;6.614;2023-08-17T08:08:05;5.43;;;1.55;;
52942;SDS011;38809;53.300;6.614;2023-08-17T08:10:31;4.07;;;1.20;;
52942;SDS011;38809;53.300;6.614;2023-08-17T08:12:57;2.15;;;0.95;;
52942;SDS011;38809;53.300;6.614;2023-08-17T08:15:22;2.67;;;0.82;;
52942;SDS011;38809;53.300;6.614;2023-08-17T08:17:48;3.35;;;0.90;;
52942;SDS011;38809;53.300;6.614;2023-08-17T08:20:14;3.55;;;1.25;;
52942;SDS011;38809;53.300;6.614;2023-08-17T08:22:40;4.70;;;1.10;;
52942;SDS011;38809;53.300;6.614;2023-08-17T08:25:05;2.13;;;0.70;;
52942;SDS011;38809;53.300;6.614;2023-08-17T08:27:31;4.65;;;1.13;;
52942;SDS011;38809;53.300;6.614;2023-08-17T08:29:57;4.28;;;0.90;;
52942;SDS011;38809;53.300;6.614;2023-08-17T08:32:23;2.22;;;0.90;;
52942;SDS011;38809;53.300;6.614;2023-08-17T08:34:48;3.17;;;1.40;;
52942;SDS011;38809;53.300;6.614;2023-08-17T08:37:14;1.75;;;0.82;;
52942;SDS011;38809;53.300;6.614;2023-08-17T08:39:50;2.63;;;0.82;;
52942;SDS011;38809;53.300;6.614;2023-08-17T08:42:18;3.65;;;1.00;;
52942;SDS011;38809;53.300;6.614;2023-08-17T08:44:44;2.38;;;0.90;;
52942;SDS011;38809;53.300;6.614;2023-08-17T08:47:11;2.55;;;0.90;;
52942;SDS011;38809;53.300;6.614;2023-08-17T08:49:39;2.40;;;0.90;;
52942;SDS011;38809;53.300;6.614;2023-08-17T08:52:07;3.95;;;1.40;;
52942;SDS011;38809;53.300;6.614;2023-08-17T08:54:35;2.33;;;0.90;;
52942;SDS011;38809;53.300;6.614;2023-08-17T08:57:04;4.00;;;1.00;;
52942;SDS011;38809;53.300;6.614;2023-08-17T08:59:34;3.00;;;1.30;;
52942;SDS011;38809;53.300;6.614;2023-08-17T09:02:01;2.80;;;1.10;;
52942;SDS011;38809;53.300;6.614;2023-08-17T09:04:28;2.50;;;0.90;;
52942;SDS011;38809;53.300;6.614;2023-08-17T09:06:54;2.05;;;0.93;;
52942;SDS011;38809;53.300;6.614;2023-08-17T09:09:21;2.22;;;1.00;;
52942;SDS011;38809;53.300;6.614;2023-08-17T09:11:48;2.47;;;0.98;;
52942;SDS011;38809;53.300;6.614;2023-08-17T09:14:13;4.35;;;0.82;;
52942;SDS011;38809;53.300;6.614;2023-08-17T09:16:39;2.15;;;0.80;;
52942;SDS011;38809;53.300;6.614;2023-08-17T09:19:05;3.67;;;0.90;;
52942;SDS011;38809;53.300;6.614;2023-08-17T09:21:31;3.05;;;1.00;;
52942;SDS011;38809;53.300;6.614;2023-08-17T09:23:58;3.78;;;0.85;;
52942;SDS011;38809;53.300;6.614;2023-08-17T09:26:23;3.17;;;0.80;;
52942;SDS011;38809;53.300;6.614;2023-08-17T09:28:52;2.20;;;0.80;;
52942;SDS011;38809;53.300;6.614;2023-08-17T09:31:23;2.20;;;0.80;;
52942;SDS011;38809;53.300;6.614;2023-08-17T09:33:50;1.92;;;0.80;;
52942;SDS011;38809;53.300;6.614;2023-08-17T09:36:19;2.47;;;0.95;;
52942;SDS011;38809;53.300;6.614;2023-08-17T09:38:50;1.70;;;0.90;;
52942;SDS011;38809;53.300;6.614;2023-08-17T09:41:19;2.22;;;1.00;;
52942;SDS011;38809;53.300;6.614;2023-08-17T09:43:48;2.65;;;1.10;;
52942;SDS011;38809;53.300;6.614;2023-08-17T09:46:14;4.25;;;0.90;;
52942;SDS011;38809;53.300;6.614;2023-08-17T09:48:39;1.90;;;0.90;;
52942;SDS011;38809;53.300;6.614;2023-08-17T09:51:09;2.78;;;0.80;;
52942;SDS011;38809;53.300;6.614;2023-08-17T09:53:35;3.28;;;0.80;;
52942;SDS011;38809;53.300;6.614;2023-08-17T09:56:07;2.00;;;0.73;;
52942;SDS011;38809;53.300;6.614;2023-08-17T09:58:35;2.65;;;1.20;;
52942;SDS011;38809;53.300;6.614;2023-08-17T10:01:03;3.13;;;0.77;;
52942;SDS011;38809;53.300;6.614;2023-08-17T10:03:30;3.10;;;1.10;;
52942;SDS011;38809;53.300;6.614;2023-08-17T10:06:00;3.30;;;0.93;;
52942;SDS011;38809;53.300;6.614;2023-08-17T10:08:32;2.05;;;0.85;;
52942;SDS011;38809;53.300;6.614;2023-08-17T10:11:04;4.38;;;0.90;;
52942;SDS011;38809;53.300;6.614;2023-08-17T10:13:37;2.97;;;0.85;;
52942;SDS011;38809;53.300;6.614;2023-08-17T10:18:52;1.80;;;0.75;;
52942;SDS011;38809;53.300;6.614;2023-08-17T10:21:27;2.23;;;0.90;;
52942;SDS011;38809;53.300;6.614;2023-08-17T10:23:58;3.90;;;1.08;;
52942;SDS011;38809;53.300;6.614;2023-08-17T10:26:24;2.42;;;1.00;;
52942;SDS011;38809;53.300;6.614;2023-08-17T10:28:51;2.25;;;0.70;;
52942;SDS011;38809;53.300;6.614;2023-08-17T10:31:17;2.67;;;0.90;;
52942;SDS011;38809;53.300;6.614;2023-08-17T10:33:44;2.15;;;0.82;;
52942;SDS011;38809;53.300;6.614;2023-08-17T10:36:12;2.78;;;0.70;;
52942;SDS011;38809;53.300;6.614;2023-08-17T10:38:39;3.30;;;1.05;;
52942;SDS011;38809;53.300;6.614;2023-08-17T10:41:09;3.53;;;1.38;;
52942;SDS011;38809;53.300;6.614;2023-08-17T10:46:34;2.42;;;0.80;;
52942;SDS011;38809;53.300;6.614;2023-08-17T10:49:03;3.92;;;1.10;;
52942;SDS011;38809;53.300;6.614;2023-08-17T10:51:33;4.13;;;1.10;;
52942;SDS011;38809;53.300;6.614;2023-08-17T10:54:01;2.67;;;1.10;;
52942;SDS011;38809;53.300;6.614;2023-08-17T10:56:28;3.30;;;0.98;;
52942;SDS011;38809;53.300;6.614;2023-08-17T10:58:59;4.50;;;0.80;;
52942;SDS011;38809;53.300;6.614;2023-08-17T11:01:32;2.50;;;1.08;;
52942;SDS011;38809;53.300;6.614;2023-08-17T11:04:23;4.37;;;1.00;;
52942;SDS011;38809;53.300;6.614;2023-08-17T11:06:56;2.80;;;1.13;;
52942;SDS011;38809;53.300;6.614;2023-08-17T11:09:27;2.95;;;1.08;;
52942;SDS011;38809;53.300;6.614;2023-08-17T11:11:53;3.05;;;1.20;;
52942;SDS011;38809;53.300;6.614;2023-08-17T11:14:19;3.70;;;1.08;;
52942;SDS011;38809;53.300;6.614;2023-08-17T11:16:48;3.10;;;1.15;;
52942;SDS011;38809;53.300;6.614;2023-08-17T11:19:17;5.20;;;1.40;;
52942;SDS011;38809;53.300;6.614;2023-08-17T11:21:43;2.55;;;0.98;;
52942;SDS011;38809;53.300;6.614;2023-08-17T11:24:09;4.28;;;0.95;;
52942;SDS011;38809;53.300;6.614;2023-08-17T11:26:35;3.85;;;1.38;;
52942;SDS011;38809;53.300;6.614;2023-08-17T11:29:01;3.20;;;1.10;;
52942;SDS011;38809;53.300;6.614;2023-08-17T11:31:28;3.60;;;0.95;;
52942;SDS011;38809;53.300;6.614;2023-08-17T11:33:53;3.42;;;1.08;;
52942;SDS011;38809;53.300;6.614;2023-08-17T11:36:19;4.40;;;1.23;;
52942;SDS011;38809;53.300;6.614;2023-08-17T11:38:47;3.75;;;1.40;;
52942;SDS011;38809;53.300;6.614;2023-08-17T11:41:12;3.80;;;1.25;;
52942;SDS011;38809;53.300;6.614;2023-08-17T11:43:39;2.88;;;1.30;;
52942;SDS011;38809;53.300;6.614;2023-08-17T11:46:05;2.95;;;1.17;;
52942;SDS011;38809;53.300;6.614;2023-08-17T11:48:31;2.65;;;1.38;;
52942;SDS011;38809;53.300;6.614;2023-08-17T11:50:57;4.28;;;1.40;;
52942;SDS011;38809;53.300;6.614;2023-08-17T11:53:23;3.78;;;1.33;;
52942;SDS011;38809;53.300;6.614;2023-08-17T11:55:49;2.83;;;1.10;;
52942;SDS011;38809;53.300;6.614;2023-08-17T11:58:15;2.75;;;1.30;;
52942;SDS011;38809;53.300;6.614;2023-08-17T12:00:42;3.35;;;1.30;;
52942;SDS011;38809;53.300;6.614;2023-08-17T12:03:12;3.47;;;1.30;;
52942;SDS011;38809;53.300;6.614;2023-08-17T12:05:42;3.67;;;1.42;;
52942;SDS011;38809;53.300;6.614;2023-08-17T12:08:10;2.80;;;1.40;;
52942;SDS011;38809;53.300;6.614;2023-08-17T12:10:38;3.75;;;1.40;;
52942;SDS011;38809;53.300;6.614;2023-08-17T12:13:03;3.60;;;1.70;;
52942;SDS011;38809;53.300;6.614;2023-08-17T12:15:33;3.28;;;1.40;;
52942;SDS011;38809;53.300;6.614;2023-08-17T12:18:01;3.42;;;1.50;;
52942;SDS011;38809;53.300;6.614;2023-08-17T12:20:29;3.75;;;1.40;;
52942;SDS011;38809;53.300;6.614;2023-08-17T12:22:57;4.82;;;1.25;;
52942;SDS011;38809;53.300;6.614;2023-08-17T12:25:24;2.60;;;1.20;;
52942;SDS011;38809;53.300;6.614;2023-08-17T12:27:50;3.80;;;1.20;;
52942;SDS011;38809;53.300;6.614;2023-08-17T12:30:26;2.72;;;1.58;;
52942;SDS011;38809;53.300;6.614;2023-08-17T12:32:53;4.47;;;1.55;;
52942;SDS011;38809;53.300;6.614;2023-08-17T12:35:19;3.72;;;1.40;;
52942;SDS011;38809;53.300;6.614;2023-08-17T12:37:47;3.72;;;1.77;;
52942;SDS011;38809;53.300;6.614;2023-08-17T12:40:13;6.93;;;1.95;;
52942;SDS011;38809;53.300;6.614;2023-08-17T12:42:39;3.25;;;1.50;;
52942;SDS011;38809;53.300;6.614;2023-08-17T12:45:04;2.75;;;1.50;;
52942;SDS011;38809;53.300;6.614;2023-08-17T12:47:30;4.28;;;1.40;;
52942;SDS011;38809;53.300;6.614;2023-08-17T12:49:56;2.20;;;1.30;;
52942;SDS011;38809;53.300;6.614;2023-08-17T12:52:22;3.55;;;1.85;;
52942;SDS011;38809;53.300;6.614;2023-08-17T12:57:14;4.10;;;1.52;;
52942;SDS011;38809;53.300;6.614;2023-08-17T12:59:39;3.53;;;1.55;;
52942;SDS011;38809;53.300;6.614;2023-08-17T13:02:05;4.00;;;1.73;;
52942;SDS011;38809;53.300;6.614;2023-08-17T13:04:31;2.83;;;1.40;;
52942;SDS011;38809;53.300;6.614;2023-08-17T13:06:56;4.28;;;1.60;;
52942;SDS011;38809;53.300;6.614;2023-08-17T13:09:22;2.65;;;1.20;;
52942;SDS011;38809;53.300;6.614;2023-08-17T13:11:48;4.80;;;1.50;;
52942;SDS011;38809;53.300;6.614;2023-08-17T13:14:14;2.92;;;1.33;;
52942;SDS011;38809;53.300;6.614;2023-08-17T13:16:41;2.90;;;1.27;;
52942;SDS011;38809;53.300;6.614;2023-08-17T13:19:07;2.38;;;1.23;;
52942;SDS011;38809;53.300;6.614;2023-08-17T13:21:32;2.75;;;1.20;;
52942;SDS011;38809;53.300;6.614;2023-08-17T13:23:58;4.15;;;1.50;;
52942;SDS011;38809;53.300;6.614;2023-08-17T13:26:25;5.53;;;1.60;;
52942;SDS011;38809;53.300;6.614;2023-08-17T13:28:51;6.28;;;1.52;;
52942;SDS011;38809;53.300;6.614;2023-08-17T13:31:16;4.78;;;1.40;;
52942;SDS011;38809;53.300;6.614;2023-08-17T13:33:42;4.38;;;1.38;;
52942;SDS011;38809;53.300;6.614;2023-08-17T13:36:08;3.90;;;1.90;;
52942;SDS011;38809;53.300;6.614;2023-08-17T13:38:33;3.58;;;1.42;;
52942;SDS011;38809;53.300;6.614;2023-08-17T13:40:59;3.35;;;1.40;;
52942;SDS011;38809;53.300;6.614;2023-08-17T13:43:25;4.03;;;1.65;;
52942;SDS011;38809;53.300;6.614;2023-08-17T13:45:51;3.10;;;1.52;;
52942;SDS011;38809;53.300;6.614;2023-08-17T13:48:16;4.57;;;1.55;;
52942;SDS011;38809;53.300;6.614;2023-08-17T13:50:42;3.00;;;1.58;;
52942;SDS011;38809;53.300;6.614;2023-08-17T13:53:08;2.95;;;1.40;;
52942;SDS011;38809;53.300;6.614;2023-08-17T13:55:34;5.97;;;1.90;;
52942;SDS011;38809;53.300;6.614;2023-08-17T13:57:59;4.18;;;2.10;;
52942;SDS011;38809;53.300;6.614;2023-08-17T14:00:25;5.43;;;1.80;;
52942;SDS011;38809;53.300;6.614;2023-08-17T14:02:51;5.25;;;1.83;;
52942;SDS011;38809;53.300;6.614;2023-08-17T14:05:17;3.80;;;1.90;;
52942;SDS011;38809;53.300;6.614;2023-08-17T14:07:43;3.10;;;1.50;;
52942;SDS011;38809;53.300;6.614;2023-08-17T14:10:09;4.13;;;1.77;;
52942;SDS011;38809;53.300;6.614;2023-08-17T14:12:35;5.88;;;2.30;;
52942;SDS011;38809;53.300;6.614;2023-08-17T14:15:01;3.65;;;1.42;;
52942;SDS011;38809;53.300;6.614;2023-08-17T14:17:27;3.30;;;1.67;;
52942;SDS011;38809;53.300;6.614;2023-08-17T14:19:52;5.28;;;1.75;;
52942;SDS011;38809;53.300;6.614;2023-08-17T14:22:19;4.93;;;1.88;;
52942;SDS011;38809;53.300;6.614;2023-08-17T14:24:45;4.93;;;1.70;;
52942;SDS011;38809;53.300;6.614;2023-08-17T14:27:11;4.80;;;1.85;;
52942;SDS011;38809;53.300;6.614;2023-08-17T14:29:37;4.35;;;2.25;;
52942;SDS011;38809;53.300;6.614;2023-08-17T14:32:02;3.40;;;1.90;;
52942;SDS011;38809;53.300;6.614;2023-08-17T14:34:28;3.80;;;1.88;;
52942;SDS011;38809;53.300;6.614;2023-08-17T14:36:54;3.42;;;2.20;;
52942;SDS011;38809;53.300;6.614;2023-08-17T14:39:20;3.92;;;2.10;;
52942;SDS011;38809;53.300;6.614;2023-08-17T14:41:46;4.13;;;2.30;;
52942;SDS011;38809;53.300;6.614;2023-08-17T14:44:11;5.10;;;3.00;;
52942;SDS011;38809;53.300;6.614;2023-08-17T14:46:37;3.78;;;2.60;;
52942;SDS011;38809;53.300;6.614;2023-08-17T14:49:07;3.63;;;2.17;;
52942;SDS011;38809;53.300;6.614;2023-08-17T14:51:37;2.83;;;2.22;;
52942;SDS011;38809;53.300;6.614;2023-08-17T14:54:04;5.40;;;2.70;;
52942;SDS011;38809;53.300;6.614;2023-08-17T14:56:30;3.55;;;1.95;;
52942;SDS011;38809;53.300;6.614;2023-08-17T14:58:56;3.72;;;2.67;;
52942;SDS011;38809;53.300;6.614;2023-08-17T15:01:22;5.50;;;2.90;;
52942;SDS011;38809;53.300;6.614;2023-08-17T15:03:48;6.07;;;2.63;;
52942;SDS011;38809;53.300;6.614;2023-08-17T15:06:13;4.10;;;2.30;;
52942;SDS011;38809;53.300;6.614;2023-08-17T15:08:39;4.50;;;1.95;;
52942;SDS011;38809;53.300;6.614;2023-08-17T15:11:05;6.97;;;3.10;;